createdAt,value
2022-12-16T00:04:46.238Z,33.2
2022-12-16T00:09:48.030Z,33.1
2022-12-16T00:14:50.250Z,33.1
2022-12-16T00:19:52.507Z,33.1
2022-12-16T00:24:54.274Z,33.1
2022-12-16T00:29:57.066Z,33
2022-12-16T00:34:59.299Z,33
2022-12-16T00:40:01.312Z,32.9
2022-12-16T00:45:03.395Z,32.9
2022-12-16T00:50:05.384Z,32.9
2022-12-16T00:55:07.394Z,32.8
2022-12-16T01:00:09.429Z,32.8
2022-12-16T01:05:11.178Z,32.7
2022-12-16T01:10:13.212Z,32.7
2022-12-16T01:15:15.249Z,32.7
2022-12-16T01:20:17.045Z,32.7
2022-12-16T01:25:18.864Z,32.6
2022-12-16T01:30:20.884Z,32.6
2022-12-16T01:35:51.855Z,32.6
2022-12-16T01:40:56.458Z,32.6
2022-12-16T01:45:58.540Z,32.6
2022-12-16T01:51:00.331Z,32.5
2022-12-16T01:56:02.376Z,32.5
2022-12-16T02:01:04.495Z,32.4
2022-12-16T02:06:06.584Z,32.4
2022-12-16T02:11:08.585Z,32.4
2022-12-16T02:16:13.978Z,32.4
2022-12-16T02:21:18.401Z,32.4
2022-12-16T02:26:20.205Z,32.3
2022-12-16T02:31:22.243Z,32.3
2022-12-16T02:36:24.295Z,32.2
2022-12-16T02:41:26.315Z,32.2
2022-12-16T02:46:28.342Z,32.2
2022-12-16T02:51:30.337Z,32.2
2022-12-16T02:56:32.311Z,32.2
2022-12-16T03:01:34.441Z,32.2
2022-12-16T03:06:36.266Z,32.2
2022-12-16T03:11:38.075Z,32.1
2022-12-16T03:16:40.167Z,32.1
2022-12-16T03:21:42.188Z,32.1
2022-12-16T03:26:43.951Z,32.1
2022-12-16T03:31:45.862Z,32.1
2022-12-16T03:36:47.622Z,32
2022-12-16T03:41:49.636Z,32
2022-12-16T03:46:51.650Z,32
2022-12-16T03:51:53.389Z,31.9
2022-12-16T03:56:55.325Z,31.9
2022-12-16T04:01:57.414Z,31.9
2022-12-16T04:06:59.377Z,31.9
2022-12-16T04:12:01.121Z,31.9
2022-12-16T04:17:02.901Z,31.9
2022-12-16T04:22:04.628Z,31.8
2022-12-16T04:27:11.852Z,31.8
2022-12-16T04:32:16.831Z,31.8
2022-12-16T04:37:18.531Z,31.8
2022-12-16T04:42:20.444Z,31.8
2022-12-16T04:47:22.281Z,31.8
2022-12-16T04:52:24.213Z,31.7
2022-12-16T04:57:26.126Z,31.7
2022-12-16T05:02:28.122Z,31.7
2022-12-16T05:07:32.018Z,31.6
2022-12-16T05:12:35.218Z,31.6
2022-12-16T05:17:36.994Z,31.6
2022-12-16T05:22:38.952Z,31.6
2022-12-16T05:27:40.889Z,31.6
2022-12-16T05:32:42.608Z,31.6
2022-12-16T05:37:44.284Z,31.6
2022-12-16T05:42:46.241Z,31.6
2022-12-16T05:47:48.177Z,31.5
2022-12-16T05:52:49.879Z,31.5
2022-12-16T05:57:51.801Z,31.5
2022-12-16T06:02:53.611Z,31.5
2022-12-16T06:07:55.658Z,31.4
2022-12-16T06:12:57.601Z,31.4
2022-12-16T06:17:59.337Z,31.4
2022-12-16T06:23:01.082Z,31.4
2022-12-16T06:28:02.791Z,31.4
2022-12-16T06:33:04.764Z,31.4
2022-12-16T06:38:06.683Z,31.3
2022-12-16T06:43:08.578Z,31.3
2022-12-16T06:48:10.460Z,31.3
2022-12-16T06:53:12.612Z,31.3
2022-12-16T06:58:14.307Z,31.3
2022-12-16T07:03:16.100Z,31.2
2022-12-16T07:08:17.991Z,31.2
2022-12-16T07:13:19.710Z,31.2
2022-12-16T07:18:21.697Z,30.9
2022-12-16T07:23:23.447Z,30.9
2022-12-16T07:28:25.202Z,30.8
2022-12-16T08:17:20.908Z,30.7
2022-12-16T08:22:22.607Z,30.7
2022-12-16T08:27:24.353Z,30.7
2022-12-16T08:32:26.338Z,30.7
2022-12-16T08:37:28.292Z,30.7
2022-12-16T08:42:30.289Z,30.6
2022-12-16T08:47:32.259Z,30.6
2022-12-16T08:52:34.230Z,30.6
2022-12-16T08:57:35.966Z,30.6
2022-12-16T09:02:38.222Z,30.6
2022-12-16T09:07:40.376Z,30.6
2022-12-16T09:12:42.362Z,30.6
2022-12-16T09:17:45.225Z,30.6
2022-12-16T09:22:46.969Z,30.6
2022-12-16T09:27:48.928Z,30.6
2022-12-16T09:32:50.897Z,30.5
2022-12-16T09:37:52.644Z,30.5
2022-12-16T09:42:55.445Z,30.5
2022-12-16T09:47:57.633Z,30.5
2022-12-16T09:52:59.598Z,30.4
2022-12-16T09:58:01.733Z,30.4
2022-12-16T10:03:06.893Z,30.4
2022-12-16T10:08:08.865Z,30.4
2022-12-16T10:13:10.897Z,30.4
2022-12-16T10:18:12.955Z,30.4
2022-12-16T10:23:14.700Z,30.4
2022-12-16T10:28:16.635Z,30.4
2022-12-16T10:33:19.363Z,30.4
2022-12-16T10:38:21.086Z,30.4
2022-12-16T10:43:23.036Z,30.3
2022-12-16T10:48:24.745Z,30.3
2022-12-16T10:53:26.466Z,30.3
2022-12-16T10:58:31.368Z,30.3
2022-12-16T11:03:34.769Z,30.3
2022-12-16T11:08:36.677Z,30.3
2022-12-16T11:13:38.344Z,30.3
2022-12-16T11:18:40.064Z,30.3
2022-12-16T11:23:41.795Z,30.3
2022-12-16T11:28:43.731Z,30.3
2022-12-16T11:33:45.610Z,30.2
2022-12-16T11:38:47.305Z,30.2
2022-12-16T11:43:49.008Z,30.2
2022-12-16T11:48:50.727Z,30.2
2022-12-16T11:53:53.683Z,30.2
2022-12-16T11:58:56.371Z,30.1
2022-12-16T12:03:58.271Z,30.1
2022-12-16T12:08:59.991Z,30.1
2022-12-16T12:14:01.890Z,30.1
2022-12-16T12:19:03.846Z,30.1
2022-12-16T12:24:05.526Z,30.1
2022-12-16T12:29:07.439Z,30.1
2022-12-16T12:34:09.206Z,30.1
2022-12-16T12:39:11.130Z,30.1
2022-12-16T12:44:12.780Z,30.1
2022-12-16T12:49:14.724Z,30.1
2022-12-16T12:54:16.434Z,30
2022-12-16T12:59:18.129Z,30
2022-12-16T13:04:20.063Z,30
2022-12-16T13:09:22.011Z,30
2022-12-16T13:14:23.933Z,30
2022-12-16T13:19:25.644Z,29.9
2022-12-16T13:24:27.539Z,29.9
2022-12-16T13:29:29.240Z,29.9
2022-12-16T13:34:30.947Z,29.9
2022-12-16T13:39:32.822Z,29.9
2022-12-16T13:44:34.730Z,29.9
2022-12-16T13:49:36.669Z,29.9
2022-12-16T13:54:38.357Z,29.9
2022-12-16T13:59:40.346Z,29.9
2022-12-16T14:04:42.099Z,29.8
2022-12-16T14:09:43.995Z,29.8
2022-12-16T14:14:45.715Z,29.8
2022-12-16T14:19:47.716Z,29.8
2022-12-16T14:24:49.422Z,29.8
2022-12-16T14:29:51.325Z,29.8
2022-12-16T14:34:53.265Z,29.8
2022-12-16T14:39:55.180Z,29.8
2022-12-16T14:44:57.078Z,29.8
2022-12-16T14:49:59.007Z,29.8
2022-12-16T14:55:00.919Z,29.8
2022-12-16T15:00:02.863Z,29.7
2022-12-16T15:05:05.046Z,29.4
2022-12-16T15:10:07.082Z,29.1
2022-12-16T15:15:09.072Z,29
2022-12-16T15:20:11.117Z,29
2022-12-16T15:25:12.806Z,29
2022-12-16T15:30:14.698Z,29
2022-12-16T15:35:16.611Z,29
2022-12-16T15:40:18.518Z,29
2022-12-16T15:45:20.612Z,28.9
2022-12-16T15:50:22.562Z,28.9
2022-12-16T15:55:24.452Z,28.4
2022-12-16T16:00:26.095Z,28.2
2022-12-16T16:05:28.037Z,28.2
2022-12-16T16:10:29.665Z,28.1
2022-12-16T16:15:31.415Z,28.1
2022-12-16T16:20:33.353Z,28.1
2022-12-16T16:25:35.046Z,28.1
2022-12-16T16:30:36.931Z,28.1
2022-12-16T16:35:38.606Z,28.1
2022-12-16T16:40:40.504Z,28.1
2022-12-16T16:45:42.369Z,28.1
2022-12-16T16:50:44.292Z,28.1
2022-12-16T16:55:46.175Z,28.1
2022-12-16T17:00:48.175Z,28.1
2022-12-16T17:05:50.175Z,28.1
2022-12-16T17:10:52.064Z,28.1
2022-12-16T17:15:53.751Z,30.8
2022-12-16T17:20:55.719Z,33.9
2022-12-16T17:25:57.567Z,36.6
2022-12-16T17:30:58.086Z,39.4
2022-12-16T17:35:58.667Z,41.2
2022-12-16T17:40:59.204Z,41.5
2022-12-16T17:45:59.760Z,42.2
2022-12-16T17:51:00.351Z,42.9
2022-12-16T17:56:00.978Z,42.7
2022-12-16T18:01:01.419Z,44
2022-12-16T18:06:01.854Z,44.4
2022-12-16T18:11:02.604Z,44.4
2022-12-16T18:16:03.334Z,44.4
2022-12-16T18:21:04.147Z,44.4
2022-12-16T18:26:04.813Z,44.3
2022-12-16T18:31:05.555Z,44.3
2022-12-16T18:36:06.050Z,44.4
2022-12-16T18:41:06.772Z,44.9
2022-12-16T18:46:07.524Z,44.9
2022-12-16T18:51:08.001Z,44.9
2022-12-16T18:56:08.728Z,44.8
2022-12-16T19:01:09.328Z,44.8
2022-12-16T19:06:09.915Z,44.7
2022-12-16T19:11:10.616Z,44.7
2022-12-16T19:16:11.337Z,44.7
2022-12-16T19:21:12.032Z,44.6
2022-12-16T19:26:12.725Z,44.6
2022-12-16T19:31:13.440Z,44.6
2022-12-16T19:36:14.214Z,44.6
2022-12-16T19:41:14.781Z,44.5
2022-12-16T19:46:15.460Z,44.5
2022-12-16T19:51:16.236Z,44.4
2022-12-16T19:56:16.727Z,44.4
2022-12-16T20:01:17.430Z,44.4
2022-12-16T20:06:18.182Z,44.3
2022-12-16T20:11:18.842Z,44.3
2022-12-16T20:16:19.566Z,44.2
2022-12-16T20:21:20.281Z,44.2
2022-12-16T20:26:20.967Z,44.2
2022-12-16T20:31:21.664Z,44.2
2022-12-16T20:36:22.298Z,44.1
2022-12-16T20:41:23.012Z,44.1
2022-12-16T20:46:23.997Z,44.1
2022-12-16T20:51:26.952Z,44
2022-12-16T20:56:27.733Z,43.9
2022-12-16T21:01:28.389Z,43.9
2022-12-16T21:06:29.103Z,43.9
2022-12-16T21:11:29.778Z,43.9
2022-12-16T21:16:30.434Z,43.4
2022-12-16T21:21:30.831Z,40.8
2022-12-16T21:26:31.467Z,40.2
2022-12-16T21:31:32.057Z,40.1
2022-12-16T21:36:32.621Z,40
2022-12-16T21:41:32.971Z,39.9
2022-12-16T21:46:33.483Z,39.7
2022-12-16T21:51:34.039Z,39.7
2022-12-16T21:56:34.321Z,39.6
2022-12-16T22:01:34.935Z,39.6
2022-12-16T22:06:35.516Z,39.5
2022-12-16T22:11:36.057Z,39.4
2022-12-16T22:16:36.578Z,39.3
2022-12-16T22:21:37.133Z,39.2
2022-12-16T22:26:37.658Z,39.2
2022-12-16T22:31:38.201Z,39.1
2022-12-16T22:36:38.752Z,39
2022-12-16T22:41:39.088Z,38.9
2022-12-16T22:46:39.440Z,38.9
2022-12-16T22:51:39.971Z,38.8
2022-12-16T22:56:40.518Z,38.7
2022-12-16T23:01:41.085Z,38.7
2022-12-16T23:06:41.661Z,38.6
2022-12-16T23:11:42.180Z,38.5
2022-12-16T23:16:42.693Z,38.5
2022-12-16T23:21:42.994Z,38.4
2022-12-16T23:26:43.499Z,38.3
2022-12-16T23:31:44.177Z,38.2
2022-12-16T23:36:44.436Z,38.2
2022-12-16T23:41:44.736Z,38.1
2022-12-16T23:46:45.050Z,38.1
2022-12-16T23:51:45.599Z,38
2022-12-16T23:56:46.112Z,37.9
